• Join FlightAware (Why Join?)
  • Login
  • US Flag 
12:40PM EDT


 

Airport Tracker/Info


-or-


 

Live Flight TrackerFlight Track Log ✈ N244A ✈ 16-Mar-2014 ✈ KMDW - KMMU

Flight Track Log - Related Links

Times and Time Zones

All times are in EDT time to prevent confusion due to time zone crossing. See the N244A flight status page for this flight to view local times or setup timezone preferences in your user account.

Time Position Orientation Groundspeed Altitude Reporting Facility
EDT Latitude Longitude Course Direction KTS MPH feet Rate Location/Type
11:12AM 41.8000 -87.7333 92° East 162 186 1,800  Level Chicago TRACON
11:13AM 41.7975 -87.6497 92° East 219 252 4,900 1,980 Climbing Chicago Center
11:14AM 41.7944 -87.5583 93° East 242 278 5,900 2,040 Climbing Chicago Center
11:15AM 41.7956 -87.4522 89° East 269 310 9,100 3,120 Climbing Chicago Center
11:16AM 41.7847 -87.3339 97° East 318 366 12,400 2,700 Climbing Chicago Center
11:17AM 41.7692 -87.1908 98° East 388 447 14,800 2,640 Climbing Chicago Center
11:18AM 41.7592 -87.0242 95° East 415 478 17,900 3,000 Climbing Chicago Center
11:19AM 41.7633 -86.8664 88° East 420 483 21,000 2,520 Climbing Chicago Center
11:20AM 41.7681 -86.7050 88° East 431 496 23,100 1,740 Climbing Chicago Center
11:21AM 41.7658 -86.5494 91° East 460 529 24,700 1,620 Climbing Chicago Center
11:22AM 41.7669 -86.3700 89° East 480 552 26,500 1,800 Climbing Chicago Center
11:23AM 41.7822 -86.1461 85° East 503 579 28,500 1,200 Climbing Chicago Center
11:24AM 41.8075 -85.9533 80° East 522 601 29,000 240 Climbing Chicago Center
11:25AM 41.8275 -85.7444 83° East 558 642 29,000  Level Chicago Center
11:26AM 41.8486 -85.5278 82° East 576 663 29,000  Level Chicago Center
11:27AM 41.8706 -85.3072 82° East 584 672 29,000  Level Chicago Center
11:28AM 41.8919 -85.0861 83° East 591 680 29,000  Level Chicago Center
11:29AM 41.9167 -84.8675 81° East 595 685 29,000  Level Chicago Center
11:30AM 41.9336 -84.6467 84° East 595 685 29,000  Level Chicago Center
11:31AM 41.9339 -84.4272 90° East 588 677 29,000  Level Chicago Center
11:32AM 41.9378 -84.1617 89° East 592 681 29,000  Level Chicago Center
11:33AM 41.9422 -83.9331 88° East 596 686 29,000  Level Chicago Center
11:35AM 41.9456 -83.7119 89° East 596 686 29,000  Level Chicago Center
11:36AM 41.9483 -83.3964 89° East 596 686 29,000  Level Cleveland Center
11:37AM 41.9503 -83.1569 89° East 597 687 29,000  Level Cleveland Center
11:38AM 41.9517 -82.9361 89° East 597 687 29,000  Level Cleveland Center
11:39AM 41.9525 -82.7136 90° East 598 688 29,000  Level Cleveland Center
11:40AM 41.9533 -82.4894 90° East 601 692 29,000  Level Cleveland Center
11:41AM 41.9525 -82.2644 90° East 603 694 29,000  Level Cleveland Center
11:42AM 41.9525 -81.9925 90° East 604 695 29,000  Level Cleveland Center
11:43AM 41.9517 -81.7614 90° East 606 697 29,000  Level Cleveland Center
11:44AM 41.9497 -81.5322 91° East 606 697 29,000  Level Cleveland Center
11:45AM 41.9483 -81.3000 90° East 609 701 29,000  Level Cleveland Center
11:46AM 41.9400 -81.0694 93° East 610 702 29,000  Level Cleveland Center
11:47AM 41.9261 -80.8403 95° East 609 701 29,000  Level Cleveland Center
11:48AM 41.9156 -80.6114 93° East 609 701 29,000  Level Cleveland Center
11:49AM 41.9033 -80.3811 94° East 612 704 29,000  Level Cleveland Center
11:50AM 41.8908 -80.1497 94° East 614 707 29,000  Level Cleveland Center
11:51AM 41.8775 -79.9192 94° East 616 709 29,000  Level Cleveland Center
11:52AM 41.8642 -79.6883 94° East 614 707 29,000  Level Cleveland Center
11:53AM 41.8467 -79.4281 95° East 613 705 29,000  Level Cleveland Center
11:54AM 41.8317 -79.2203 95° East 618 711 29,000  Level Cleveland Center
11:56AM 41.8169 -78.9933 95° East 618 711 29,000  Level Cleveland Center
11:57AM 41.8000 -78.7367 95° East 620 713 29,000  Level Cleveland Center
11:58AM 41.7850 -78.5081 95° East 619 712 29,000  Level Cleveland Center
11:59AM 41.7672 -78.2758 96° East 621 715 29,000  Level Cleveland Center
12:00PM 41.7503 -78.0450 96° East 622 716 29,000  Level Cleveland Center
12:01PM 41.7325 -77.8147 96° East 622 716 29,000  Level Cleveland Center
12:01PM 41.7192 -77.6658 97° East 628 723 29,000  Level New York Center
12:02PM 41.7008 -77.4361 96° East 623 717 29,000  Level New York Center
12:03PM 41.6825 -77.2064 96° East 623 717 29,000  Level New York Center
12:04PM 41.6378 -76.9856 105° East 617 710 29,000  Level New York Center
12:05PM 41.5761 -76.7717 111° Southeast 622 716 29,000  Level New York Center
12:06PM 41.5211 -76.5783 111° Southeast 617 710 29,000 -780 Level New York Center
12:07PM 41.4644 -76.3686 110° East 611 703 27,500 -2,640 Descending New York Center
12:08PM 41.4056 -76.1564 110° East 611 703 23,800 -3,300 Descending New York Center
12:09PM 41.3442 -75.9469 111° Southeast 586 674 20,800 -2,820 Descending New York Center
12:10PM 41.2897 -75.7578 111° Southeast 563 648 18,200 -1,440 Descending New York Center
12:11PM 41.2367 -75.5772 111° Southeast 543 625 18,000 -360 Descending New York Center
12:12PM 41.1789 -75.4078 114° Southeast 518 596 17,500 -1,560 Descending New York Center
12:13PM 41.1325 -75.2639 113° Southeast 485 558 14,900 -3,480 Descending New York Center
12:14PM 41.0797 -75.1092 114° Southeast 440 506 10,600 -2,820 Descending New York Center
12:15PM 41.0383 -74.9881 114° Southeast 384 442 9,200 -2,160 Descending New York Center
12:16PM 40.9967 -74.8700 115° Southeast 358 412 6,300 -2,280 Descending New York Center
12:17PM 40.9581 -74.7853 121° Southeast 325 374 4,800 -1,500 Descending New York Center
12:18PM 40.9175 -74.6897 119° Southeast 284 327 3,400 -900 Descending New York Center
12:19PM 40.8847 -74.6108 119° Southeast 269 310 3,100 -300 Descending New York Center
12:20PM 40.8333 -74.5333 131° Southeast 273 314 2,900 -240 Descending New York TRACON
12:21PM 40.7667 -74.4833 150° Southeast 199 229 2,700 -900 Descending New York TRACON
12:22PM 40.7667 -74.4500 90° East 128 147 1,200 -1,080 Descending New York TRACON
12:23PM 40.8000 -74.4167 37° Northeast 109 125 600 720 Descending New York TRACON
12:25PM 40.6942 -74.4442 191° South 145 167 3,400 660 Climbing New York Center
12:26PM 40.6800 -74.4900 248° West 145 167 2,700 -360 Descending New York Center
12:27PM 40.6661 -74.5411 250° West 139 160 2,700 7,560 Level New York Center
12:28PM 40.6542 -74.5869 251° West 139 160 18,000 15,300 Climbing New York Center
12:30PM 40.7851 -74.4318 37° Northeast  Level Estimated
12:37PM 40.7833 -74.4000 37° Northeast  Level FlightAware Approximate
12:38PM 40.7993 -74.4149 37° Northeast  Level Estimated